NCAR-RAP Real-Time Weather Data

Output produced by METARs form (21 May 2019  11:41 UTC)
found at http://weather.rap.ucar.edu/surface/
 
RODN 211056Z AUTO 36010KT 10SM CLR 21/14 A2979 RMK AO2 SLPNO T02070141 $
RODN 210956Z AUTO 01009KT 10SM CLR 22/14 A2978 RMK AO2 SLPNO T02200139 $
RODN 210856Z AUTO 01012G18KT 10SM CLR 23/14 A2976 RMK AO2 SLPNO T02340144 55000 $
RODN 210756Z AUTO 35014G21KT 10SM CLR 24/15 A2975 RMK AO2 SLP080 T02420146 $
RODN 210656Z AUTO 02015G23KT 10SM CLR 25/15 A2976 RMK AO2 SLP084 T02480146 $
RODN 210556Z AUTO 36015G22KT 10SM CLR 25/16 A2976 RMK AO2 SLP084 T02480157 10252 20242 57012 $
RODN 210456Z AUTO 01013G25KT 10SM SCT031 25/16 A2978 RMK AO2 SLP090 T02450159 $
RODN 210356Z AUTO 35016G24KT 10SM FEW130 FEW150 SCT180 24/15 A2979 RMK AO2 SLP094 T02430152 $
RODN 210256Z AUTO 34016G22KT 10SM SCT032 25/16 A2980 RMK AO2 SLP097 T02460158 $
RODN 210156Z AUTO 01016G22KT 10SM M 24/16 M RMK AO2 SLPNO T02430160 CHINO RWY23 $
RODN 210056Z 35010G18KT 10SM SCT030 22/15 A2981 RMK AO2A SLP100 WND DATA/ALSTG ESTMD $
RODN 202356Z 35010G18KT 10SM SCT030 22/15 A2981 RMK AO2A SLPNO WND DATA/ALSTG ESTMD 70010 $
RODN 202258Z COR 35010G18KT 10SM SCT030 22/15 A2981 RMK AO2A SLPNO WND DATA/ALSTG ESTMD $ COR 2308
RODN 202159Z 35010G15KT 10SM SCT025 21/15 A2980 RMK AO2A SLPNO WND DATA/ALSTG ESTMD $
RODN 202056Z COR AUTO 01010KT 7SM SCT025 21/14 A2980 RMK AO2A SLPNO ALSTG/SLP ESTMD $ COR 2059
RODN 201956Z AUTO 36012KT 10SM FEW031 21/15 A2975 RMK AO2 SLP080 T02060147 $
RODN 201856Z AUTO 35011G17KT 10SM SCT031 BKN090 21/16 A2975 RMK AO2 SLP080 T02130156 $
RODN 201756Z AUTO 36013KT 10SM SCT032 BKN090 22/16 A2975 RMK AO2 SLP080 60000 T02170155 10233 20216 58001 $
RODN 201656Z AUTO 36011KT 10SM FEW028 22/16 A2975 RMK AO2 SLP080 T02180163 $
RODN 201556Z AUTO 36013G23KT 10SM FEW024 22/17 A2975 RMK AO2 SLP080 T02220173 $
RODN 201536Z AUTO 36013G18KT 10SM SCT022 22/18 A2975 RMK AO2 SLP080 $
RODN 201456Z AUTO 35013KT 10SM BKN023 BKN029 23/19 A2975 RMK AO2 SLP080 60000 T02280185 402700227 53008 $
RODN 201406Z AUTO 35012KT 10SM OVC021 23/19 A2975 RMK AO2 SLP080 $
RODN 201356Z AUTO 35016G22KT 10SM BKN017 OVC024 23/19 A2975 RMK AO2 BKN V OVC SLP080 T02270190 $
RODN 201326Z AUTO 34017G21KT 10SM BKN015 OVC022 23/20 A2974 RMK AO2 CIG 013V017 SLP076 $
RODN 201316Z AUTO 36012G19KT 10SM BKN013 OVC021 23/21 A2973 RMK AO2 SLP073 $
RODN 201256Z AUTO 36011KT 10SM OVC015 23/21 A2972 RMK AO2 DZB1158E03RAB03E13DZB13E14 OVC V BKN SLP070 P0000 T02310206 $
RODN 201214Z AUTO 36012G19KT 10SM BKN015 OVC020 23/21 A2973 RMK AO2 DZB1158E03RAB03E13DZB13E14 SLP073 $
RODN 201158Z AUTO 34013G19KT 10SM -DZ OVC016 23/21 A2973 RMK AO2 DZB58 SLP073 $
RODN 201156Z AUTO 34014G19KT 10SM OVC016 23/21 A2973 RMK AO2 DZB28E46 SLP073 P0000 60007 T02320207 10270 20231 52017 $
RODN 201146Z AUTO 34014G22KT 10SM OVC016 23/21 A2972 RMK AO2 DZB28E46 SLP070 $
RODN 201128Z AUTO 35014G21KT 10SM -DZ OVC016 23/21 A2972 RMK AO2 DZB28 OVC V BKN SLP070 $
RODN 201056Z AUTO 34013G18KT 10SM OVC016 23/21 A2972 RMK AO2 DZB0958E09RAB14E32DZB32E34 CIG 014V019 SLP070 P0000 T02340213 $
RODN 201034Z AUTO 34012KT 10SM OVC016 23/22 A2971 RMK AO2 DZB0958E09RAB14E32DZB32E34 SLP066 $
RODN 201014Z AUTO 34014G18KT 10SM -RA OVC016 24/22 A2970 RMK AO2 DZB0958E09RAB14 CIG 014 RWY23 SLP063 $
RODN 201009Z AUTO 34011G15KT 10SM OVC014 24/22 A2970 RMK AO2 DZB0958E09 SLP063 $
RODN 200958Z AUTO 34015G18KT 10SM -DZ BKN013 OVC019 24/22 A2969 RMK AO2 DZB58 CIG 010V016 BKN V OVC SLP059 $
RODN 200956Z AUTO 34011KT 10SM OVC013 24/22 A2970 RMK AO2 DZE26 CIG 010V016 OVC V BKN CIG 011 RWY23 SLP063 P0000 T02350219 $
RODN 200936Z AUTO 34012KT 10SM SCT007 OVC016 24/22 A2969 RMK AO2 DZE26 CIG 007V016 CIG 013 RWY23 SLP059 $
RODN 200926Z AUTO 34013G20KT 10SM BKN007 OVC016 24/22 A2968 RMK AO2 DZE26 SLP056 $
RODN 200856Z AUTO 33012G19KT 10SM -DZ BKN007 OVC012 24/23 A2967 RMK AO2 RAE0758DZB0758E0759DZB20E22DZB26E44DZB52 CIG 007V012 BKN V SCT SLP053 P0000 60007 T02410229 $
RODN 200852Z AUTO 33012G19KT 10SM -DZ BKN007 OVC012 24/23 A2967 RMK AO2 RAE0758DZB0758E0759DZB20E22DZB26E44DZB52 CIG 007V012 BKN V SCT SLP053 $
RODN 200844Z AUTO 33013G18KT 10SM BKN007 OVC012 24/23 A2967 RMK AO2 RAE0758DZB0758E0759DZB20E22DZB26E44 SLP053 $
RODN 200836Z AUTO 32010KT 10SM -DZ BKN007 OVC012 24/23 A2967 RMK AO2 RAE0758DZB0758E0759DZB20E22DZB26 CIG 007V013 BKN V SCT SLP053 $
RODN 200826Z AUTO 33011G18KT 10SM -DZ SCT006 BKN013 OVC022 24/23 A2967 RMK AO2 RAE0758DZB0758E0759DZB20E22DZB26 SLP053 $
RODN 200822Z AUTO 32011G18KT 10SM SCT006 BKN013 OVC020 25/23 A2967 RMK AO2 RAE0758DZB0758E0759DZB20E22 SLP053 $
RODN 200820Z AUTO 33012G18KT 10SM -DZ SCT006 BKN011 OVC020 25/23 A2967 RMK AO2 RAE0758DZB0758E0759DZB20 CIG 011V020 BKN V SCT SLP053 $
RODN 200819Z AUTO 34011KT 10SM SCT006 BKN011 OVC020 25/24 A2967 RMK AO2 RAE0758DZB0758E0759 CIG 011V021 BKN V SCT SLP053 $
RODN 200809Z AUTO 30013KT 10SM FEW001 SCT009 SCT013 BKN021 OVC029 25/24 A2966 RMK AO2 RAE0758DZB0758E0759 CIG 011V021 CIG 018 RWY23 SLP049 $
RODN 200759Z AUTO 29009KT 10SM FEW001 SCT006 BKN011 BKN021 OVC030 25/24 A2966 RMK AO2 RAE58DZB58E59 CIG 006 RWY23 SLP049 $
RODN 200756Z AUTO 30009KT 7SM -RA FEW001 BKN008 BKN013 OVC020 25/24 A2966 RMK AO2 DZB02E07RAB07E17DZB17E25RAB28 BKN008 V OVC CIG 006 RWY23 SLP049 P0007 T02480236 $
RODN 200748Z AUTO 31010KT 2SM +RA BR FEW001 OVC008 25/24 A2966 RMK AO2 VIS 1 7/8V5 DZB02E07RAB07E17DZB17E25RAB28 OVC V BKN CIG 006 RWY23 SLP049 $
RODN 200728Z AUTO 28009KT 10SM -RA BKN008 BKN035 26/24 A2966 RMK AO2 DZB02E07RAB07E17DZB17E25RAB28 CIG 008V037 BKN008 V SCT SLP049 $
RODN 200725Z AUTO 28008KT 10SM SCT008 BKN037 26/24 A2966 RMK AO2 DZB02E07RAB07E17DZB17E25 SLP049 $
RODN 200722Z AUTO 28007KT 10SM -DZ BKN009 BKN038 26/24 A2966 RMK AO2 DZB02E07RAB07E17DZB17 CIG 009V027 SLP049 $
RODN 200702Z AUTO 28008KT 10SM -DZ SCT010 SCT017 BKN027 26/24 A2967 RMK AO2 DZB02 BKN V OVC CIG 009 RWY23 SLP052 $
RODN 200656Z AUTO 27009KT 10SM SCT010 OVC027 26/24 A2967 RMK AO2 OVC V BKN CIG 009 RWY23 SLP052 T02630243 $
RODN 200636Z AUTO 26009KT 10SM BKN027 OVC035 27/24 A2967 RMK AO2 CIG 027V035 SLP052 $
RODN 200616Z AUTO 25009KT 10SM SCT006 OVC035 27/25 A2967 RMK AO2 SLP052 $
RODN 200556Z AUTO 25009KT 10SM OVC006 27/25 A2967 RMK AO2 SLP052 60005 T02670247 10268 20233 56012 $
RODN 200526Z AUTO 25007KT 10SM OVC006 27/25 A2967 RMK AO2 SLP052 $
RODN 200506Z AUTO 25007KT 10SM OVC007 26/25 A2967 RMK AO2 CIG 007V009 OVC V BKN SLP052 $
RODN 200456Z AUTO 25008KT 10SM BKN009 OVC012 26/25 A2967 RMK AO2 DZE19 CIG 009V011 SLP052 P0000 T02620248 $
RODN 200449Z AUTO 24009KT 10SM BKN011 26/25 A2967 RMK AO2 DZE19 BKN V SCT SLP052 $
RODN 200419Z AUTO 24009KT 10SM SCT006 BKN130 26/25 A2968 RMK AO2 DZE19 SLP056 $
RODN 200416Z AUTO 24009KT 10SM -DZ SCT006 BKN130 26/25 A2968 RMK AO2 SLP056 $
RODN 200406Z AUTO 24007KT 10SM -DZ BKN005 26/25 A2969 RMK AO2 SLP059 $
RODN 200356Z AUTO 24007KT 10SM -DZ SCT006 26/24 A2969 RMK AO2 DZE12RAB12E38DZB38 SLP059 P0001 T02550244 $
RODN 200346Z AUTO 24008KT 10SM -DZ FEW028 25/24 A2970 RMK AO2 DZE12RAB12E38DZB38 SLP063 $
RODN 200336Z AUTO 23008KT 10SM -RA FEW006 BKN027 25/24 A2970 RMK AO2 DZE12RAB12 SLP063 $
RODN 200326Z AUTO 23008KT 10SM -RA SCT006 OVC024 25/24 A2970 RMK AO2 DZE12RAB12 CIG 013V024 SLP063 $
RODN 200316Z AUTO 24006KT 10SM -RA SCT007 BKN013 25/24 A2970 RMK AO2 DZE12RAB12 CIG 005V013 SLP063 $
RODN 200306Z AUTO 22006KT 10SM DZ BKN005 25/24 A2970 RMK AO2 CIG 003V007 SLP063 $
RODN 200256Z AUTO 22008KT 10SM DZ SCT003 BKN007 25/24 A2971 RMK AO2 RAE13DZB13E16RAB16E28DZB28E39RAB39E50DZB50 CIG 005V007 SLP066 P0002 60004 T02490238 53001 $
RODN 200246Z AUTO 22008KT 10SM -RA BKN005 25/24 A2971 RMK AO2 RAE13DZB13E16RAB16E28DZB28E39RAB39 CIG 005V007 SLP066 $
RODN 200226Z AUTO 21007KT 10SM -RA BKN009 25/24 A2971 RMK AO2 RAE13DZB13E16RAB16 CIG 009V011 SLP066 $
RODN 200156Z AUTO 23009KT 10SM -RA OVC014 25/24 A2971 RMK AO2 DZB02E51RAB51 SLP066 P0000 T02540243 $
RODN 200152Z AUTO 23008KT 10SM -RA OVC014 26/24 A2971 RMK AO2 DZB02E51RAB51 SLP066 $
RODN 200122Z AUTO 22005KT 10SM -DZ BKN019 26/25 A2970 RMK AO2 DZB02 BKN V SCT SLP063 $
RODN 200102Z AUTO 21004KT 10SM -DZ FEW020 26/25 A2970 RMK AO2 LTG DSNT SE DZB02 SLP063 $
RODN 200056Z AUTO 00000KT 10SM CLR 25/24 A2969 RMK AO2 LTG DSNT SE RAE16DZB16E35 SLP059 P0002 T02510244 $
RODN 200035Z AUTO 00000KT 10SM CLR 24/24 A2969 RMK AO2 LTG DSNT SE RAE16DZB16E35 SLP059 $
RODN 200027Z 16003KT 10SM -DZ FEW009 FEW020 24/23 A2970 RMK AO2A LTG DSNT SE RAE16DZB16 SLP063 $
RODN 200007Z 20007KT 10SM -RA FEW008 BKN015 OVC019 23/23 A2970 RMK AO2A LTG DSNT SE CIG 015V026 CIG 007 RWY23 SLP063 $
RODN 192356Z 22008KT 10SM -RA FEW009 SCT019 OVC026 23/22 A2970 RMK AO2A TSE48 CIG 007 RWY23 SLP063 P0036 60071 70072 T02320222 10260 20230 50001 $
RODN 192348Z 00000KT 9SM -RA OVC026 23/22 A2970 RMK AO2A TSE48 CIG 010 RWY23 SLP063 $
RODN 192343Z 34003KT 7SM TSRA OVC028 23/22 A2970 RMK AO2A CIG 013 RWY23 SLP063 $
RODN 192333Z 08005KT 1 5/8SM TSRA BR VCTS FEW001 OVC027 23/22 A2969 RMK AO2A VIS 5/8V1 5/8 VIS 1 1/8 RWY23 CIG 013 RWY23 SLP059 $
RODN 192330Z 07005KT 1SM TSRA R05/4000VP6000FT +RA BR VCTS FEW001 OVC025 23/22 A2969 RMK AO2A CIG 013 RWY23 SLP059 $
RODN 192322Z 10005KT 3/4SM R05/3000VP6000FT +TSRA BR FEW001 BKN026 OVC034 23/22 A2970 RMK AO2A VIS 3/4V4 TWR VIS 2 CIG 014 RWY23 PRESFR SLP063 $
RODN 192315Z 00000KT 2 3/4SM +TSRA BR SCT001 BKN024 OVC034 23/22 A2972 RMK AO2A VIS 2 3/4V4 CIG 017V024 CIG 011 RWY23 PRESRR SLP070 $
RODN 192301Z 01011KT 4SM +TSRA BR BKN001 OVC014 23/22 A2970 RMK AO2A SLP063 $
RODN 192256Z 36011KT 2 1/2SM +TSRA BR BKN001 OVC017 23/22 A2970 RMK AO2A VIS 1 1/4V2 1/2 RAB2150 TSB2156 CIG 001V019 BKN V SCT SLP063 P0031 T02330219 $
RODN 192237Z 32009G18KT 2SM +TSRA BR SCT002 SCT011 OVC021 25/23 A2971 RMK AO2A VIS 2V4 CIG 008 RWY23 SLP066 $
RODN 192204Z 00000KT 3SM +TSRA BR SCT002 SCT011 OVC019 26/25 A2970 RMK AO2A CIG 006 RWY23 SLP063 $
RODN 192156Z 00000KT 4SM +TSRA BR FEW003 FEW011 OVC021 26/25 A2970 RMK AO2A DZB00E01RAB01E17DZB17E23RAB23 TSB02E22TSB29 OVC V BKN CIG 005 RWY23 SLP063 P0005 T02580247 $
RODN 192146Z COR 00000KT 8SM -TSRA FEW011 BKN023 OVC046 26/25 A2970 RMK AO2 DZB00E01RAB01E17DZB17E23RAB23 TSB02E22TSB29 CIG 006 RWY23 SLP062 $ COR 2148
RODN 192139Z AUTO 00000KT 7SM -TSRA FEW011 BKN023 OVC046 26/25 A2970 RMK AO2 DZB00E01RAB01E17DZB17E23RAB23 TSB02E22TSB29 CIG 006 RWY23 SLP062 $
RODN 192129Z AUTO 15003KT 8SM -TSRA FEW011 BKN019 BKN046 26/25 A2970 RMK AO2 DZB00E01RAB01E17DZB17E23RAB23 TSB02E22TSB29 CIG 016V046 SLP062 $
RODN 192122Z AUTO 14003KT 10SM +DZ FEW011 SCT016 BKN046 26/25 A2970 RMK AO2 LTG DSNT W-NW DZB00E01RAB01E17DZB17 TSB02E22 SLP062 $
RODN 192117Z 12003KT 9SM TS -DZ FEW011 BKN016 26/25 A2969 RMK AO2A DZB00E01RAB01E17DZB17 TSB02 CIG 016V020 SLP059 $
RODN 192107Z AUTO 16003KT 10SM -TSRA SCT010 BKN022 26/25 A2970 RMK AO2 DZB00E01RAB01 TSB07 CIG 009V026 SLP062 $
RODN 192102Z COR 18003KT 10SM -TSRA SCT010 26/25 A2970 RMK AO2 DZB00E01RAB01 SLP062 $ COR 2116
RODN 192056Z AUTO 18003KT 10SM BKN009 26/25 A2970 RMK AO2 DZB16E34DZB39E47 TSE09 SLP062 P0000 60000 T02600249 55005 $
RODN 192039Z AUTO 00000KT 10SM -DZ OVC009 26/25 A2970 RMK AO2 DZB16E34DZB39 TSE09 SLP062 $
RODN 192034Z AUTO 00000KT 10SM OVC009 26/25 A2970 RMK AO2 DZB16E34 TSE09 SLP062 $
RODN 192016Z AUTO 00000KT 10SM -DZ BKN009 BKN090 26/25 A2969 RMK AO2 DZB16 TSE09 SLP059 $
RODN 192009Z AUTO 00000KT 10SM BKN009 BKN095 26/25 A2969 RMK AO2 TSE09 CIG 009V095 BKN009 V SCT SLP059 $
RODN 192006Z AUTO 00000KT 10SM TS BKN009 BKN095 26/25 A2969 RMK AO2 CIG 009V095 BKN009 V FEW SLP059 $
RODN 191956Z AUTO 00000KT 10SM TS FEW009 SCT095 26/25 A2969 RMK AO2 TSB54 SLP059 T02580247 $
RODN 191954Z AUTO 00000KT 10SM TS FEW009 SCT100 26/25 A2969 RMK AO2 TSB54 SLP059 $
RODN 191856Z AUTO 18005KT 10SM CLR 26/25 A2969 RMK AO2 SLP059 T02570246 $
RODN 191836Z AUTO 16005KT 10SM CLR 26/24 A2969 RMK AO2 SLP059 $
RODN 191824Z 16004KT 10SM FEW008 BKN015 26/24 A2970 RMK AO2A SLP062 $
RODN 191756Z AUTO 19004KT 10SM CLR 26/24 A2971 RMK AO2 DZB07E44 SLP065 P0001 60001 T02560243 10261 20255 57024 $
RODN 191744Z AUTO 20004KT 10SM FEW003 26/24 A2972 RMK AO2 DZB07E44 SLP069 $
RODN 191707Z AUTO 18006KT 10SM -DZ FEW009 26/24 A2974 RMK AO2 DZB07 SLP076 $
RODN 191656Z AUTO 17004KT 10SM CLR 26/24 A2974 RMK AO2 DZB25E29 SLP076 P0000 T02570243 $
RODN 191629Z AUTO 15006KT 10SM CLR 26/24 A2975 RMK AO2 DZB25E29 SLP079 $
RODN 191625Z AUTO 18006KT 10SM -DZ FEW050 26/24 A2976 RMK AO2 DZB25 SLP082 $
RODN 191556Z AUTO 14005KT 10SM CLR 26/24 A2975 RMK AO2 SLP079 T02580242 $
RODN 191456Z AUTO 12005KT 10SM CLR 26/24 A2978 RMK AO2 SLP089 T02590243 403230229 58004 $
RODN 191426Z AUTO 12005KT 10SM FEW023 SCT029 SCT070 26/24 A2979 RMK AO2 SLP093 $
RODN 191416Z AUTO 12005KT 10SM SCT023 BKN029 26/24 A2980 RMK AO2 BKN V SCT SLP096 $
RODN 191356Z AUTO 12004KT 10SM FEW030 FEW170 26/24 A2980 RMK AO2 SLP096 T02590239 $
RODN 191326Z AUTO 00000KT 10SM SCT028 26/24 A2980 RMK AO2 SLP096 $
RODN 191256Z AUTO 00000KT 10SM SCT037 SCT044 26/24 A2981 RMK AO2 SLP099 T02590237 $
RODN 191156Z AUTO 00000KT 10SM SCT011 BKN037 BKN095 26/24 A2980 RMK AO2 SLP096 60000 T02610237 10320 20261 52014 $
RODN 191106Z AUTO 00000KT 10SM SCT014 OVC065 26/24 A2977 RMK AO2 SLP086 $
RODN 191056Z AUTO 00000KT 10SM BKN014 OVC065 26/24 A2977 RMK AO2 CIG 013 RWY23 SLP086 T02630235 $
RODN 191046Z AUTO 00000KT 10SM BKN014 26/24 A2977 RMK AO2 SLP086 $
RODN 190956Z AUTO 29003KT 10SM SCT075 BKN130 27/24 A2977 RMK AO2 DZB16E25 SLP086 P0000 T02690235 $
RODN 190925Z AUTO 25004KT 10SM FEW018 OVC120 27/23 A2976 RMK AO2 DZB16E25 SLP083 $
RODN 190916Z AUTO 00000KT 10SM -DZ FEW018 BKN120 28/24 A2976 RMK AO2 DZB16 SLP083 $
RODN 190856Z AUTO 25005KT 10SM SCT018 BKN120 28/24 A2976 RMK AO2 SLP083 T02830241 53005 $
RODN 190846Z AUTO 24004KT 10SM SCT016 BKN021 BKN120 29/24 A2975 RMK AO2 CIG 016V021 BKN021 V OVC CIG 019 RWY23 SLP079 $
RODN 190836Z AUTO 24003KT 10SM BKN016 OVC021 29/24 A2975 RMK AO2 SLP079 $
RODN 190806Z AUTO 00000KT 10SM BKN014 OVC080 30/25 A2974 RMK AO2 CIG 014V021 BKN V SCT SLP076 $
RODN 190756Z AUTO 00000KT 10SM SCT014 SCT021 BKN080 29/25 A2974 RMK AO2 SLP076 T02900252 $
RODN 190736Z AUTO 13006KT 10SM BKN020 29/25 A2974 RMK AO2 SLP076 $
RODN 190656Z AUTO 14007KT 10SM BKN016 31/25 A2974 RMK AO2 BKN V OVC SLP076 T03080246 $
RODN 190646Z AUTO 13006KT 10SM BKN017 31/25 A2973 RMK AO2 BKN V SCT SLP072 $
RODN 190556Z AUTO 26003KT 10SM FEW200 31/24 A2974 RMK AO2 SLP076 T03120243 10323 20288 57014 $
RODN 190456Z AUTO 00000KT 10SM FEW190 32/24 A2976 RMK AO2 SLP083 T03220239 $
RODN 190356Z AUTO 26004KT 10SM FEW160 FEW190 FEW210 30/24 A2977 RMK AO2 SLP086 T03010237 $
RODN 190256Z AUTO 27004KT 10SM FEW120 SCT150 SCT180 BKN200 30/24 A2978 RMK AO2 SLP089 T03030242 50003 $
RODN 190156Z AUTO 26005KT 10SM FEW130 FEW200 30/24 A2978 RMK AO2 SLP089 T03010244 $
RODN 190056Z AUTO 31004KT 10SM SCT015 29/24 A2979 RMK AO2 SLP093 T02900241 $
RODN 182356Z AUTO 01006KT 10SM CLR 29/25 A2977 RMK AO2 SLP086 60000 T02880245 10288 20240 52011 $